Thunder radar more information blitzortung!


Radar de pluja more information rain snow radar


Visita la nostra xarxa de llocs de meteo:

Template documentation
and downloads

And another site



No particular awareness of the weather is required.    There are no Weather-warnings

Pagina Historial Weather Underground text

Diari Resum February 2, 2018 Unitats:  Imperial    Mètric   Tant
« Previous Dia
SegĂźent Dia »
Diari Setmana Mensual Anual Personalitzada
  Maxima: Minima: Media:
Temperatura: TemperatureC °F 3.3 °F 6.1 °F
Punt de rosada: DewpointC °F -7.7 °F -0.2 °F
Humitat: Humidity % 43 % 65 %
Wind Speed: WindSpeedKMH mph 0.0 mph 3.6 mph
RĂ fegues de vent: WindSpeedGustKMH mph - -
Vent:- - South
Pression baro: PressurehPa in 1003.9 in -
Precipitacions: 1.0 in    
Historical Graphs
 
 
Dades de taula per February 2, 2018
Temps Temperatura Punt de rosada Pression baro Vent Wind Speed RĂ fegues de vent Humitat Rainfall Rate (Hourly)
TemperatureC °F DewpointC °F PressurehPa in Calm     Humidity % HourlyPrecipMM in
00:04 5.0 °F 1.7 °F 1008.0 in ESE 3.9 mph 3.9 mph 79 % 0.0 in
00:09 5.0 °F 1.7 °F 1008.0 in East 5.6 mph 5.6 mph 79 % 0.0 in
00:14 4.9 °F 1.7 °F 1008.0 in ENE 5.6 mph 5.6 mph 80 % 0.0 in
00:19 4.8 °F 1.7 °F 1008.0 in ESE 7.4 mph 7.4 mph 80 % 0.0 in
00:24 4.8 °F 1.7 °F 1008.0 in ENE 3.7 mph 3.7 mph 80 % 0.0 in
00:29 4.7 °F 1.6 °F 1008.0 in ENE 7.4 mph 7.4 mph 80 % 0.0 in
00:34 4.7 °F 1.7 °F 1008.0 in East 3.9 mph 3.9 mph 81 % 0.0 in
00:39 4.7 °F 1.7 °F 1008.0 in ESE 7.4 mph 7.4 mph 81 % 0.0 in
00:44 4.6 °F 1.8 °F 1008.0 in East 5.6 mph 5.6 mph 82 % 0.0 in
00:49 4.6 °F 1.8 °F 1008.0 in East 7.4 mph 7.4 mph 82 % 0.0 in
00:54 4.6 °F 1.8 °F 1008.0 in ESE 7.4 mph 7.4 mph 82 % 0.0 in
00:59 4.5 °F 1.9 °F 1008.0 in ENE 5.6 mph 5.6 mph 83 % 1.3 in
01:04 4.5 °F 1.9 °F 1008.0 in ENE 7.4 mph 7.4 mph 83 % 0.0 in
01:09 4.3 °F 1.7 °F 1008.0 in ESE 9.3 mph 9.3 mph 83 % 1.3 in
01:14 4.3 °F 1.7 °F 1007.0 in SSE 7.4 mph 7.4 mph 83 % 1.3 in
01:19 4.3 °F 1.7 °F 1007.0 in ESE 3.7 mph 3.9 mph 83 % 1.3 in
01:24 4.3 °F 1.7 °F 1007.0 in East 5.6 mph 5.6 mph 83 % 1.3 in
01:29 4.2 °F 1.6 °F 1007.0 in ESE 3.7 mph 3.7 mph 83 % 1.3 in
01:34 4.1 °F 1.4 °F 1007.0 in Calm     83 % 1.3 in
01:39 4.2 °F 1.6 °F 1007.0 in Calm     83 % 1.3 in
01:44 4.2 °F 1.6 °F 1007.0 in Calm     83 % 1.3 in
01:49 4.2 °F 1.6 °F 1007.0 in SSW 1.9 mph   83 % 1.3 in
01:54 4.2 °F 1.6 °F 1007.0 in SSW 1.9 mph 1.9 mph 83 % 1.3 in
01:59 4.1 °F 1.4 °F 1007.0 in Calm     83 % 1.3 in
02:04 4.1 °F 1.3 °F 1007.0 in WSW 3.7 mph 3.7 mph 82 % 1.3 in
02:09 4.1 °F 1.3 °F 1007.0 in WSW 2.3 mph 2.3 mph 82 % 0.0 in
03:25 3.3 °F 0.8 °F 1007.0 in WSW 1.6 mph 3.2 mph 84 % 0.0 in
09:26 3.3 °F 0.8 °F 1007.0 in WSW 3.7 mph 3.7 mph 84 % 0.0 in
09:32 3.5 °F 1.1 °F 1006.0 in WSW 3.7 mph 3.7 mph 84 % 0.0 in
09:37 3.5 °F 1.1 °F 1006.0 in WSW 1.9 mph 2.3 mph 84 % 0.0 in
09:42 3.6 °F 1.2 °F 1006.0 in WSW 1.9 mph 1.9 mph 84 % 0.0 in
09:47 3.6 °F 1.2 °F 1007.0 in SW 3.7 mph 3.7 mph 84 % 0.0 in
09:52 3.7 °F 1.2 °F 1007.0 in SW 1.9 mph   84 % 0.0 in
09:57 3.8 °F 1.3 °F 1007.0 in Calm     84 % 0.0 in
10:02 3.8 °F 1.3 °F 1006.0 in Calm     84 % 0.0 in
10:07 3.9 °F 1.4 °F 1006.0 in Calm     84 % 0.0 in
10:12 3.9 °F 1.3 °F 1006.0 in Calm     83 % 0.0 in
10:17 4.0 °F 1.4 °F 1007.0 in Calm     83 % 0.0 in
10:22 4.2 °F 1.6 °F 1007.0 in SW 1.9 mph 1.9 mph 83 % 0.0 in
10:27 4.3 °F 1.7 °F 1007.0 in Calm     83 % 0.0 in
10:32 4.5 °F 1.9 °F 1007.0 in Calm     83 % 0.0 in
10:37 4.6 °F 1.9 °F 1007.0 in Calm     83 % 0.0 in
10:42 4.7 °F 2.1 °F 1007.0 in Calm     83 % 0.0 in
10:47 4.7 °F 2.1 °F 1007.0 in Calm     83 % 0.0 in
10:52 4.7 °F 1.9 °F 1007.0 in Calm     82 % 0.0 in
10:57 4.8 °F 2.0 °F 1007.0 in NNE 4.2 mph 4.2 mph 82 % 0.0 in
11:02 4.6 °F 1.8 °F 1007.0 in NE 3.7 mph   82 % 0.0 in
11:07 4.8 °F 2.0 °F 1007.0 in NE 3.2 mph 3.2 mph 82 % 0.0 in
11:12 4.8 °F 1.8 °F 1007.0 in NNE 4.2 mph 4.2 mph 81 % 0.0 in
11:17 4.8 °F 1.8 °F 1006.0 in NE 1.9 mph   81 % 0.0 in
11:22 5.0 °F 2.0 °F 1006.0 in Calm     81 % 0.0 in
11:27 5.2 °F 2.2 °F 1006.0 in ENE 1.4 mph   81 % 0.0 in
11:32 5.1 °F 1.9 °F 1007.0 in NE 1.9 mph   80 % 0.0 in
11:37 5.2 °F 1.8 °F 1007.0 in ENE 1.9 mph 1.9 mph 79 % 0.0 in
11:42 5.5 °F 2.2 °F 1007.0 in Calm   1.9 mph 79 % 0.0 in
11:47 5.7 °F 2.3 °F 1007.0 in North 1.9 mph   79 % 0.0 in
11:52 5.9 °F 2.6 °F 1007.0 in WNW 3.7 mph 3.7 mph 79 % 0.0 in
11:57 6.1 °F 2.7 °F 1007.0 in NNE 1.9 mph   79 % 0.0 in
12:02 6.1 °F 2.6 °F 1007.0 in ENE 5.3 mph 5.8 mph 78 % 0.0 in
12:07 6.3 °F 2.7 °F 1007.0 in NNE 4.7 mph 4.7 mph 78 % 0.0 in
12:12 6.2 °F 2.3 °F 1007.0 in NE 2.3 mph 2.3 mph 76 % 0.0 in
12:17 6.5 °F 2.8 °F 1006.0 in NNE 5.6 mph 5.6 mph 77 % 0.0 in
12:22 6.8 °F 3.1 °F 1006.0 in NNE 2.6 mph   77 % 0.0 in
12:27 6.8 °F 2.9 °F 1006.0 in NNE 4.7 mph 4.7 mph 76 % 0.0 in
12:32 6.5 °F 2.6 °F 1006.0 in NE 5.6 mph 5.6 mph 76 % 0.0 in
12:37 6.7 °F 2.8 °F 1006.0 in East 3.7 mph 3.9 mph 76 % 0.0 in
12:42 6.6 °F 2.5 °F 1006.0 in East 3.7 mph 3.9 mph 75 % 0.0 in
12:47 6.7 °F 2.6 °F 1005.0 in Calm   1.4 mph 75 % 0.0 in
12:52 6.7 °F 2.6 °F 1005.0 in NNE 3.7 mph 3.7 mph 75 % 0.0 in
12:57 6.9 °F 2.8 °F 1005.0 in WNW 1.9 mph 2.3 mph 75 % 0.0 in
13:02 6.9 °F 2.8 °F 1006.0 in NE 3.2 mph   75 % 0.0 in
13:07 7.0 °F 2.7 °F 1006.0 in NNE 4.2 mph 4.2 mph 74 % 0.0 in
13:12 6.9 °F 2.6 °F 1006.0 in ENE 3.7 mph 3.7 mph 74 % 0.0 in
13:17 6.8 °F 2.3 °F 1006.0 in ENE 3.7 mph 3.7 mph 73 % 0.0 in
13:22 7.0 °F 2.7 °F 1006.0 in NNE 4.7 mph 4.7 mph 74 % 0.0 in
13:27 6.8 °F 2.3 °F 1006.0 in ENE 5.6 mph 5.6 mph 73 % 0.0 in
13:32 7.0 °F 2.5 °F 1006.0 in NNE 1.9 mph 1.9 mph 73 % 0.0 in
13:37 7.1 °F 2.6 °F 1006.0 in Calm   1.4 mph 73 % 0.0 in
13:42 7.1 °F 2.4 °F 1006.0 in East 1.9 mph 1.9 mph 72 % 0.0 in
13:47 7.3 °F 2.4 °F 1006.0 in ENE 1.9 mph 2.6 mph 71 % 0.0 in
13:52 7.4 °F 2.5 °F 1006.0 in ENE 3.7 mph 3.7 mph 71 % 0.0 in
13:57 7.6 °F 2.9 °F 1006.0 in NNE 1.9 mph 2.3 mph 72 % 0.0 in
14:02 7.8 °F 3.1 °F 1003.9 in WSW 1.9 mph 2.3 mph 72 % 0.0 in
14:07 8.3 °F 3.6 °F 1003.9 in West 1.9 mph 1.9 mph 72 % 0.0 in
14:12 8.6 °F 3.8 °F 1003.9 in Calm   1.4 mph 72 % 0.0 in
14:17 8.6 °F 3.4 °F 1003.9 in WNW 1.9 mph   70 % 0.0 in
14:22 8.4 °F 3.2 °F 1003.9 in NE 4.2 mph 4.2 mph 70 % 0.0 in
14:27 8.3 °F 2.9 °F 1003.9 in NNE 3.7 mph 3.7 mph 69 % 0.0 in
14:32 8.3 °F 2.9 °F 1003.9 in ENE 5.6 mph 5.6 mph 69 % 0.0 in
14:37 8.3 °F 2.9 °F 1003.9 in NNE 5.6 mph 5.6 mph 69 % 0.0 in
14:42 8.6 °F 3.2 °F 1003.9 in NNE 3.7 mph 3.7 mph 69 % 0.0 in
14:47 8.4 °F 2.8 °F 1003.9 in NNE 7.4 mph 7.4 mph 68 % 0.0 in
14:52 8.5 °F 2.9 °F 1003.9 in ENE 5.6 mph 5.6 mph 68 % 0.0 in
14:57 8.5 °F 2.9 °F 1003.9 in NNE 5.6 mph 5.6 mph 68 % 0.0 in
15:02 8.6 °F 3.0 °F 1005.0 in NNE 3.9 mph 3.9 mph 68 % 0.0 in
15:07 8.7 °F 2.7 °F 1005.0 in East 3.7 mph 3.7 mph 66 % 0.0 in
15:12 9.1 °F 3.5 °F 1005.0 in SW 3.7 mph 3.9 mph 68 % 0.0 in
15:17 9.3 °F 3.5 °F 1005.0 in West 6.4 mph 6.4 mph 67 % 0.0 in
15:22 9.6 °F 3.6 °F 1005.0 in WSW 5.6 mph 5.8 mph 66 % 0.0 in
15:27 9.8 °F 3.5 °F 1005.0 in West 13.0 mph 13.0 mph 65 % 0.0 in
15:32 9.8 °F 3.5 °F 1005.0 in WSW 9.7 mph 9.7 mph 65 % 0.0 in
15:37 9.5 °F 2.8 °F 1005.0 in West 5.6 mph 5.6 mph 63 % 0.0 in
15:42 9.6 °F 2.9 °F 1005.0 in WSW 7.4 mph 7.4 mph 63 % 0.0 in
15:47 9.4 °F 2.3 °F 1006.0 in WNW 7.4 mph 7.4 mph 61 % 0.0 in
15:52 9.5 °F 2.3 °F 1006.0 in West 4.2 mph 6.9 mph 61 % 0.0 in
15:57 9.5 °F 2.3 °F 1006.0 in NW 1.9 mph 2.3 mph 61 % 0.0 in
16:02 9.6 °F 2.4 °F 1006.0 in SW 5.6 mph 5.6 mph 61 % 0.0 in
16:07 9.7 °F 2.6 °F 1006.0 in West 5.6 mph 5.6 mph 61 % 0.0 in
16:12 9.9 °F 2.7 °F 1006.0 in SW 5.6 mph 5.6 mph 61 % 0.0 in
16:17 9.7 °F 2.6 °F 1006.0 in WNW 7.4 mph 7.4 mph 61 % 0.0 in
16:22 9.5 °F 2.1 °F 1006.0 in WSW 4.7 mph 4.7 mph 60 % 0.0 in
16:27 9.5 °F 2.1 °F 1006.0 in NW 3.7 mph 3.7 mph 60 % 0.0 in
16:32 9.6 °F 1.9 °F 1006.0 in West 1.9 mph 3.9 mph 59 % 0.0 in
16:37 9.6 °F 2.2 °F 1006.0 in WNW 5.8 mph 5.8 mph 60 % 0.0 in
16:42 9.7 °F 1.8 °F 1006.0 in NW 3.7 mph 3.7 mph 58 % 0.0 in
16:47 9.9 °F 2.0 °F 1005.0 in WNW 7.4 mph 7.4 mph 58 % 0.0 in
16:52 9.8 °F 1.7 °F 1005.0 in NNW 3.7 mph   57 % 0.0 in
16:57 9.8 °F 1.7 °F 1005.0 in East 1.9 mph   57 % 0.0 in
17:02 9.9 °F 1.8 °F 1005.0 in WSW 3.7 mph 3.7 mph 57 % 0.0 in
17:07 9.9 °F 1.8 °F 1005.0 in NNE 2.6 mph   57 % 0.0 in
17:12 9.7 °F 1.6 °F 1005.0 in NNW 2.6 mph 2.6 mph 57 % 0.0 in
17:13 9.7 °F 1.6 °F 1005.0 in NNW 2.6 mph 2.6 mph 57 % 0.0 in
17:18 9.6 °F 1.2 °F 1006.0 in NW 1.9 mph   56 % 0.0 in
17:23 9.5 °F 1.2 °F 1006.0 in North 2.3 mph 2.3 mph 56 % 0.0 in
17:28 9.2 °F 0.9 °F 1006.0 in NE 3.7 mph 3.7 mph 56 % 0.0 in
17:33 9.2 °F 0.9 °F 1006.0 in Calm     56 % 0.0 in
17:38 9.1 °F 0.5 °F 1006.0 in NE 1.9 mph 1.9 mph 55 % 0.0 in
17:43 9.0 °F 0.4 °F 1006.0 in NE 1.9 mph   55 % 0.0 in
17:48 8.8 °F 0.2 °F 1005.0 in Calm     55 % 0.0 in
17:53 8.7 °F 0.2 °F 1005.0 in Calm     55 % 0.0 in
17:58 8.7 °F 0.2 °F 1005.0 in Calm     55 % 0.0 in
18:03 8.6 °F 0.3 °F 1006.0 in Calm     56 % 0.0 in
18:08 8.4 °F 0.1 °F 1006.0 in Calm     56 % 0.0 in
18:13 8.2 °F 0.2 °F 1006.0 in Calm     57 % 0.0 in
18:18 8.0 °F -0.3 °F 1006.0 in Calm     56 % 0.0 in
18:23 7.9 °F -0.3 °F 1006.0 in Calm     56 % 0.0 in
18:28 7.7 °F -0.3 °F 1006.0 in WNW 1.9 mph 1.9 mph 57 % 0.0 in
18:33 7.5 °F -0.5 °F 1006.0 in Calm     57 % 0.0 in
18:38 7.3 °F -0.4 °F 1006.0 in West 3.7 mph 3.7 mph 58 % 0.0 in
18:43 7.1 °F -0.4 °F 1006.0 in WSW 3.9 mph 4.2 mph 59 % 0.0 in
18:48 7.1 °F -0.6 °F 1006.0 in West 1.9 mph 1.9 mph 58 % 0.0 in
18:53 7.0 °F -0.7 °F 1006.0 in NE 3.9 mph 3.9 mph 58 % 0.0 in
18:58 6.7 °F -1.0 °F 1006.0 in West 3.9 mph   58 % 0.0 in
19:03 6.6 °F -1.1 °F 1007.0 in WNW 1.9 mph 1.9 mph 58 % 0.0 in
19:08 6.6 °F -1.3 °F 1007.0 in WSW 4.2 mph 4.2 mph 57 % 0.0 in
19:13 6.7 °F -1.4 °F 1007.0 in WSW 3.7 mph 4.2 mph 56 % 0.0 in
19:18 6.7 °F -1.4 °F 1007.0 in WSW 5.6 mph 5.6 mph 56 % 0.0 in
19:23 6.6 °F -2.1 °F 1007.0 in West 3.7 mph 3.7 mph 54 % 0.0 in
19:28 6.5 °F -2.2 °F 1007.0 in East 5.6 mph 5.6 mph 54 % 0.0 in
19:33 6.7 °F -2.5 °F 1007.0 in NE 3.7 mph 3.7 mph 52 % 0.0 in
19:38 6.9 °F -2.3 °F 1007.0 in SW 5.6 mph 5.6 mph 52 % 0.0 in
19:43 6.4 °F -2.8 °F 1007.0 in WSW 4.2 mph 4.2 mph 52 % 0.0 in
19:48 6.2 °F -2.9 °F 1007.0 in SW 1.9 mph 2.3 mph 52 % 0.0 in
19:53 6.0 °F -3.4 °F 1007.0 in WSW 1.9 mph   51 % 0.0 in
19:58 6.0 °F -3.4 °F 1007.0 in ENE 3.7 mph 3.7 mph 51 % 0.0 in
20:03 6.0 °F -3.4 °F 1007.0 in WSW 2.3 mph 2.3 mph 51 % 0.0 in
20:08 5.7 °F -3.7 °F 1007.0 in WSW 2.3 mph 2.3 mph 51 % 0.0 in
20:13 5.7 °F -3.7 °F 1007.0 in WSW 3.7 mph 3.7 mph 51 % 0.0 in
20:18 5.7 °F -3.7 °F 1008.0 in NW 3.7 mph 3.7 mph 51 % 0.0 in
20:23 5.7 °F -3.7 °F 1008.0 in WSW 5.8 mph 5.8 mph 51 % 0.0 in
20:28 5.4 °F -3.9 °F 1008.0 in SW 3.7 mph 3.7 mph 51 % 0.0 in
20:33 5.1 °F -4.2 °F 1007.0 in WSW 5.6 mph 5.6 mph 51 % 0.0 in
20:38 4.9 °F -4.7 °F 1007.0 in SW 1.9 mph   50 % 0.0 in
20:43 4.6 °F -4.7 °F 1007.0 in SW 5.6 mph 5.6 mph 51 % 0.0 in
20:48 4.3 °F -5.2 °F 1007.0 in SW 5.6 mph 5.6 mph 50 % 0.0 in
20:53 4.2 °F -5.3 °F 1007.0 in SW 6.1 mph 6.1 mph 50 % 0.0 in
20:58 4.2 °F -5.3 °F 1007.0 in West 2.6 mph 3.2 mph 50 % 0.0 in
21:03 4.0 °F -5.5 °F 1008.0 in West 2.6 mph 3.2 mph 50 % 0.0 in
21:08 3.7 °F -5.8 °F 1008.0 in SW 2.6 mph 3.2 mph 50 % 0.0 in
21:13 3.6 °F -5.9 °F 1008.0 in WSW 4.7 mph 4.7 mph 50 % 0.0 in
21:18 3.6 °F -5.9 °F 1008.0 in WSW 5.6 mph 5.6 mph 50 % 0.0 in
21:23 3.5 °F -5.9 °F 1008.0 in WSW 5.8 mph 5.8 mph 50 % 0.0 in
21:28 3.7 °F -5.8 °F 1008.0 in West 3.7 mph 5.8 mph 50 % 0.0 in
21:33 4.0 °F -5.8 °F 1008.0 in West 3.7 mph 5.8 mph 49 % 0.0 in
21:38 4.1 °F -5.7 °F 1008.0 in West 7.6 mph 7.6 mph 49 % 0.0 in
21:43 4.1 °F -5.9 °F 1008.0 in NNW 3.7 mph 3.7 mph 48 % 0.0 in
21:48 4.1 °F -6.2 °F 1008.0 in West 3.7 mph 3.7 mph 47 % 0.0 in
21:53 4.1 °F -6.2 °F 1008.0 in SW 5.6 mph 5.6 mph 47 % 0.0 in
21:58 4.1 °F -6.2 °F 1008.0 in WNW 7.4 mph 7.4 mph 47 % 0.0 in
22:03 4.0 °F -6.6 °F 1008.0 in West 3.7 mph 3.7 mph 46 % 0.0 in
22:08 4.0 °F -6.6 °F 1008.0 in SW 5.8 mph 5.8 mph 46 % 0.0 in
22:13 4.0 °F -6.6 °F 1008.0 in West 1.9 mph 1.9 mph 46 % 0.0 in
22:18 4.0 °F -6.6 °F 1008.0 in ENE 2.3 mph 2.3 mph 46 % 0.0 in
22:23 4.0 °F -6.6 °F 1008.0 in WSW 6.1 mph 6.1 mph 46 % 0.0 in
22:28 3.9 °F -6.7 °F 1008.0 in WSW 3.7 mph 3.7 mph 46 % 0.0 in
22:33 3.7 °F -6.9 °F 1008.0 in West 9.3 mph 9.3 mph 46 % 0.0 in
22:38 3.8 °F -6.8 °F 1008.0 in SSW 7.4 mph 7.4 mph 46 % 0.0 in
22:43 3.8 °F -6.8 °F 1008.0 in SSE 7.4 mph 7.4 mph 46 % 0.0 in
22:48 3.9 °F -6.7 °F 1008.0 in WSW 7.4 mph 7.4 mph 46 % 0.0 in
22:53 4.0 °F -6.9 °F 1008.0 in West 3.7 mph 3.7 mph 45 % 0.0 in
22:58 4.1 °F -6.8 °F 1008.0 in NNW 7.6 mph 7.6 mph 45 % 0.0 in
23:03 4.1 °F -6.8 °F 1008.0 in WSW 4.2 mph 4.2 mph 45 % 0.0 in
23:08 4.1 °F -6.8 °F 1008.0 in WSW 7.4 mph 7.4 mph 45 % 0.0 in
23:13 4.0 °F -6.9 °F 1008.0 in West 7.4 mph 7.4 mph 45 % 0.0 in
23:18 3.8 °F -7.3 °F 1008.0 in NNW 3.7 mph 3.7 mph 44 % 0.0 in
23:23 3.8 °F -7.3 °F 1008.0 in West 5.6 mph 5.6 mph 44 % 0.0 in
23:28 3.8 °F -7.3 °F 1008.0 in SW 3.7 mph 3.7 mph 44 % 0.0 in
23:33 3.7 °F -7.4 °F 1008.0 in WNW 2.6 mph 3.2 mph 44 % 0.0 in
23:38 3.8 °F -7.3 °F 1008.0 in WNW 5.0 mph 5.0 mph 44 % 0.0 in
23:43 3.7 °F -7.4 °F 1008.0 in WSW 3.7 mph 3.7 mph 44 % 0.0 in
23:48 3.7 °F -7.4 °F 1008.0 in WSW 3.7 mph 3.7 mph 44 % 0.0 in
23:53 3.7 °F -7.4 °F 1008.0 in WSW 5.6 mph 5.6 mph 44 % 0.0 in
23:58 3.7 °F -7.7 °F 1008.0 in WSW 3.7 mph   43 % 0.0 in
Meteo Sesrovires
Elogis d' Weather Underground - 1.5 mb

Guio original per  Jim McMurry - jmcmurry@mwt.net Adaptat per a la plantilla per  Wim van der Kuil - Leuven-Template.eu

Trobareu la nostra informacio del temps tambe a:

Weather Underground

AWEKAS